Time;durP1;ratioP1;P1;durP2;ratioP2;P2;SDS_P1;SDS_P2;PMS_P1;PMS_P2;Temp;Humidity;BMP_temperature;BMP_pressure;BME280_temperature;BME280_humidity;BME280_pressure;Samples;Min_cycle;Max_cycle;Signal;HPM_P1;HPM_P2
2023/06/22 00:01:15;;;;;;;4.30;3.90;;;;;;;;;;5066824;28;20196;-86
2023/06/22 00:03:41;;;;;;;4.87;4.20;;;;;;;;;;5043412;28;20238;-86
2023/06/22 00:06:09;;;;;;;4.50;3.83;;;;;;;;;;5066957;28;20190;-86
2023/06/22 00:08:35;;;;;;;4.90;4.27;;;;;;;;;;5059711;28;20176;-86
2023/06/22 00:11:01;;;;;;;5.40;3.80;;;;;;;;;;5055464;28;20199;-86
2023/06/22 00:13:27;;;;;;;7.57;4.83;;;;;;;;;;5055478;28;20180;-81
2023/06/22 00:15:53;;;;;;;6.10;4.93;;;;;;;;;;5055106;28;20286;-81
2023/06/22 00:18:20;;;;;;;6.20;4.87;;;;;;;;;;5038959;28;20214;-81
2023/06/22 00:20:46;;;;;;;6.33;5.00;;;;;;;;;;5038769;28;20188;-81
2023/06/22 00:23:15;;;;;;;5.97;4.73;;;;;;;;;;5065878;28;20167;-81
2023/06/22 00:25:41;;;;;;;7.97;5.23;;;;;;;;;;5055750;28;20227;-81
2023/06/22 00:28:08;;;;;;;6.00;5.10;;;;;;;;;;5057684;28;20187;-81
2023/06/22 00:30:34;;;;;;;6.33;5.20;;;;;;;;;;5074142;28;20179;-82
2023/06/22 00:33:00;;;;;;;6.87;5.23;;;;;;;;;;5074115;28;20233;-81
2023/06/22 00:35:30;;;;;;;7.17;5.03;;;;;;;;;;5078697;28;20182;-81
2023/06/22 00:38:04;;;;;;;5.63;5.00;;;;;;;;;;5068610;28;20278;-87
2023/06/22 00:40:31;;;;;;;6.63;5.47;;;;;;;;;;5068556;28;20247;-87
2023/06/22 00:42:57;;;;;;;7.87;5.43;;;;;;;;;;5083827;28;20187;-87
2023/06/22 00:45:24;;;;;;;9.37;5.70;;;;;;;;;;5082836;28;20222;-87
2023/06/22 00:47:53;;;;;;;9.80;5.93;;;;;;;;;;5077422;28;20361;-87
2023/06/22 00:50:23;;;;;;;8.23;5.87;;;;;;;;;;5076901;28;20209;-87
2023/06/22 00:52:53;;;;;;;6.33;4.90;;;;;;;;;;5064916;28;20176;-87
2023/06/22 00:55:21;;;;;;;6.70;5.60;;;;;;;;;;5054581;28;20230;-87
2023/06/22 00:57:47;;;;;;;7.97;5.43;;;;;;;;;;5061350;28;20199;-87
2023/06/22 01:00:15;;;;;;;5.90;5.30;;;;;;;;;;5064283;28;20214;-87
2023/06/22 01:02:41;;;;;;;6.70;5.97;;;;;;;;;;5072813;28;20187;-87
2023/06/22 01:05:07;;;;;;;7.07;5.57;;;;;;;;;;5074160;28;20215;-87
2023/06/22 01:07:40;;;;;;;7.40;5.20;;;;;;;;;;5055928;28;20187;-87
2023/06/22 01:10:09;;;;;;;5.80;5.00;;;;;;;;;;5073706;28;20221;-86
2023/06/22 01:12:41;;;;;;;6.20;5.33;;;;;;;;;;5063650;28;20187;-87
2023/06/22 01:15:30;;;;;;;7.63;5.57;;;;;;;;;;5074074;28;20190;-87
2023/06/22 01:17:58;;;;;;;8.43;5.83;;;;;;;;;;5056577;28;20199;-86
2023/06/22 01:20:26;;;;;;;6.50;5.80;;;;;;;;;;5059728;28;20187;-87
2023/06/22 01:23:13;;;;;;;7.03;5.63;;;;;;;;;;5067895;28;20230;-87
2023/06/22 01:25:48;;;;;;;6.83;6.20;;;;;;;;;;5054082;28;20235;-86
2023/06/22 01:28:20;;;;;;;6.57;5.97;;;;;;;;;;5060059;28;20218;-87
2023/06/22 01:30:47;;;;;;;6.47;5.87;;;;;;;;;;5069612;28;20253;-87
2023/06/22 01:33:13;;;;;;;7.17;6.17;;;;;;;;;;5072980;28;20205;-87
2023/06/22 01:35:40;;;;;;;6.83;6.13;;;;;;;;;;5073038;28;20250;-87
2023/06/22 01:38:07;;;;;;;7.47;6.47;;;;;;;;;;5065638;28;20278;-86
2023/06/22 01:40:34;;;;;;;7.47;5.73;;;;;;;;;;5043369;28;20195;-86
2023/06/22 01:43:04;;;;;;;7.77;5.87;;;;;;;;;;5053921;28;20275;-87
2023/06/22 01:45:30;;;;;;;6.73;5.60;;;;;;;;;;5068792;28;20321;-86
2023/06/22 01:47:57;;;;;;;6.43;5.77;;;;;;;;;;5072449;28;20187;-88
2023/06/22 01:50:23;;;;;;;7.77;5.80;;;;;;;;;;5057326;28;20202;-87
2023/06/22 01:52:49;;;;;;;7.27;5.90;;;;;;;;;;5057514;28;20328;-87
2023/06/22 01:55:15;;;;;;;7.00;5.77;;;;;;;;;;5073701;28;20266;-87
2023/06/22 01:57:41;;;;;;;7.57;5.83;;;;;;;;;;5054537;28;20202;-87
2023/06/22 02:00:10;;;;;;;6.30;5.50;;;;;;;;;;5036772;28;20210;-86
2023/06/22 02:02:55;;;;;;;6.27;4.97;;;;;;;;;;5053350;28;20219;-87
2023/06/22 02:05:22;;;;;;;6.47;5.77;;;;;;;;;;5053681;28;20212;-87
2023/06/22 02:08:06;;;;;;;7.90;6.20;;;;;;;;;;5053236;28;20176;-87
2023/06/22 02:10:33;;;;;;;9.83;6.63;;;;;;;;;;5053453;28;20180;-81
2023/06/22 02:13:03;;;;;;;7.80;5.77;;;;;;;;;;5053104;28;20176;-81
2023/06/22 02:15:29;;;;;;;6.53;5.77;;;;;;;;;;5054152;28;20187;-81
2023/06/22 02:17:55;;;;;;;6.27;5.67;;;;;;;;;;5053224;28;20228;-81
2023/06/22 02:20:21;;;;;;;6.00;5.40;;;;;;;;;;5036590;28;20188;-81
2023/06/22 02:22:47;;;;;;;6.37;5.50;;;;;;;;;;5036598;28;20278;-81
2023/06/22 02:25:13;;;;;;;6.60;5.90;;;;;;;;;;5036405;28;20310;-81
2023/06/22 02:27:53;;;;;;;7.33;6.10;;;;;;;;;;5112100;27;20530;-76
2023/06/22 02:30:19;;;;;;;7.80;7.00;;;;;;;;;;5110681;28;20205;-76
2023/06/22 02:32:45;;;;;;;8.73;6.53;;;;;;;;;;5093969;28;20190;-78
2023/06/22 02:35:11;;;;;;;10.37;7.30;;;;;;;;;;5094281;28;20178;-79
2023/06/22 02:37:41;;;;;;;9.73;7.40;;;;;;;;;;5093846;28;20253;-79
2023/06/22 02:40:08;;;;;;;10.23;7.90;;;;;;;;;;5107283;28;20182;-79
2023/06/22 02:42:35;;;;;;;8.03;6.90;;;;;;;;;;5107053;28;20190;-79
2023/06/22 02:45:01;;;;;;;8.63;7.47;;;;;;;;;;5107728;28;20268;-78
2023/06/22 02:47:27;;;;;;;8.20;7.40;;;;;;;;;;5106752;28;20221;-78
2023/06/22 02:49:53;;;;;;;8.57;7.67;;;;;;;;;;5082520;28;20181;-81
2023/06/22 02:52:19;;;;;;;9.60;7.97;;;;;;;;;;5111513;28;20190;-80
2023/06/22 02:54:45;;;;;;;8.70;7.80;;;;;;;;;;5114264;27;20178;-79
2023/06/22 02:57:13;;;;;;;9.30;8.30;;;;;;;;;;5115849;28;20195;-79
2023/06/22 02:59:40;;;;;;;10.70;8.57;;;;;;;;;;5092074;28;20182;-79
2023/06/22 03:02:07;;;;;;;12.30;8.60;;;;;;;;;;5090517;28;20191;-79
2023/06/22 03:04:33;;;;;;;10.23;9.10;;;;;;;;;;5090552;28;20272;-79
2023/06/22 03:07:01;;;;;;;11.27;9.40;;;;;;;;;;5107502;28;20206;-79
2023/06/22 03:09:27;;;;;;;11.60;10.30;;;;;;;;;;5089774;28;20205;-78
2023/06/22 03:11:53;;;;;;;12.50;11.20;;;;;;;;;;5090133;28;20201;-78
2023/06/22 03:14:19;;;;;;;11.97;10.70;;;;;;;;;;5073031;28;20171;-78
2023/06/22 03:16:45;;;;;;;13.90;12.43;;;;;;;;;;5072961;28;20179;-78
2023/06/22 03:19:12;;;;;;;14.77;12.50;;;;;;;;;;5089589;28;20192;-78
2023/06/22 03:21:41;;;;;;;14.23;12.73;;;;;;;;;;5089586;28;20229;-78
2023/06/22 03:24:07;;;;;;;15.13;13.63;;;;;;;;;;5104553;28;20197;-76
2023/06/22 03:26:34;;;;;;;15.20;13.70;;;;;;;;;;5109577;28;20252;-76
2023/06/22 03:29:00;;;;;;;15.90;14.20;;;;;;;;;;5109695;28;20181;-76
2023/06/22 03:31:26;;;;;;;16.40;14.13;;;;;;;;;;5093383;28;20178;-76
2023/06/22 03:33:52;;;;;;;18.80;15.27;;;;;;;;;;5109704;28;20173;-76
2023/06/22 03:36:22;;;;;;;16.40;14.50;;;;;;;;;;5110846;28;20175;-76
2023/06/22 03:38:48;;;;;;;17.50;15.63;;;;;;;;;;5099243;28;20202;-76
2023/06/22 03:41:14;;;;;;;17.97;16.00;;;;;;;;;;5095799;28;20228;-76
2023/06/22 03:43:41;;;;;;;18.37;16.47;;;;;;;;;;5078991;28;20194;-76
2023/06/22 03:46:07;;;;;;;19.87;17.83;;;;;;;;;;5078811;28;20217;-77
2023/06/22 03:48:33;;;;;;;18.53;16.53;;;;;;;;;;5095806;28;20186;-77
2023/06/22 03:51:05;;;;;;;20.90;18.70;;;;;;;;;;5079180;28;20179;-76
2023/06/22 03:53:31;;;;;;;20.67;18.47;;;;;;;;;;5080103;28;20185;-76
2023/06/22 03:55:57;;;;;;;18.67;16.87;;;;;;;;;;5095793;28;20178;-76
2023/06/22 03:58:23;;;;;;;22.37;19.60;;;;;;;;;;5078622;28;20185;-76
2023/06/22 04:00:50;;;;;;;22.23;19.80;;;;;;;;;;5078035;28;20183;-76
2023/06/22 04:03:18;;;;;;;23.50;21.00;;;;;;;;;;5094753;28;20187;-76
2023/06/22 04:05:44;;;;;;;23.90;21.23;;;;;;;;;;5096782;28;20182;-76
2023/06/22 04:08:10;;;;;;;22.70;20.30;;;;;;;;;;5094699;28;20170;-76
2023/06/22 04:10:37;;;;;;;23.23;20.90;;;;;;;;;;5094661;28;20175;-76
2023/06/22 04:13:03;;;;;;;23.67;21.30;;;;;;;;;;5091227;28;20221;-87
2023/06/22 04:15:29;;;;;;;25.27;22.67;;;;;;;;;;5094072;28;20202;-87
2023/06/22 04:17:55;;;;;;;25.37;22.83;;;;;;;;;;5079710;28;20190;-86
2023/06/22 04:20:22;;;;;;;26.47;23.83;;;;;;;;;;5097266;28;20179;-87
2023/06/22 04:22:48;;;;;;;25.60;22.90;;;;;;;;;;5078886;28;20179;-87
2023/06/22 04:25:14;;;;;;;25.90;23.23;;;;;;;;;;5096927;28;20179;-87
2023/06/22 04:27:40;;;;;;;26.00;22.67;;;;;;;;;;5083027;28;20257;-87
2023/06/22 04:30:07;;;;;;;30.17;24.80;;;;;;;;;;5087501;28;20183;-81
2023/06/22 04:32:33;;;;;;;25.60;23.00;;;;;;;;;;5092617;28;20197;-80
2023/06/22 04:35:04;;;;;;;27.30;23.63;;;;;;;;;;5095236;28;20234;-81
2023/06/22 04:37:30;;;;;;;24.97;22.57;;;;;;;;;;5077445;28;20266;-80
2023/06/22 04:39:56;;;;;;;27.50;24.70;;;;;;;;;;5075009;28;20258;-80
2023/06/22 04:42:22;;;;;;;26.93;24.13;;;;;;;;;;5090500;28;20175;-79
2023/06/22 04:44:48;;;;;;;28.23;25.40;;;;;;;;;;5094651;28;20183;-78
2023/06/22 04:47:14;;;;;;;27.07;24.37;;;;;;;;;;5078089;28;20206;-78
2023/06/22 04:49:43;;;;;;;26.80;24.07;;;;;;;;;;5076252;28;20185;-78
2023/06/22 04:52:09;;;;;;;28.27;25.23;;;;;;;;;;5077680;28;20179;-78
2023/06/22 04:54:36;;;;;;;28.03;25.17;;;;;;;;;;5094050;28;20170;-78
2023/06/22 04:57:03;;;;;;;26.30;23.70;;;;;;;;;;5094218;28;20182;-79
2023/06/22 04:59:30;;;;;;;27.47;24.67;;;;;;;;;;5077158;28;20175;-79
2023/06/22 05:01:56;;;;;;;27.33;24.53;;;;;;;;;;5077916;28;20186;-78
2023/06/22 05:04:23;;;;;;;28.20;23.87;;;;;;;;;;5077833;28;20218;-81
2023/06/22 05:06:49;;;;;;;27.60;24.90;;;;;;;;;;5093730;28;20206;-80
2023/06/22 05:09:18;;;;;;;27.27;24.50;;;;;;;;;;5094262;28;20228;-80
2023/06/22 05:11:45;;;;;;;26.70;23.97;;;;;;;;;;5091567;28;20182;-81
2023/06/22 05:14:11;;;;;;;25.67;23.03;;;;;;;;;;5093897;28;20178;-80
2023/06/22 05:16:37;;;;;;;27.03;24.23;;;;;;;;;;5074102;28;20187;-80
2023/06/22 05:19:03;;;;;;;26.20;23.47;;;;;;;;;;5075919;28;20190;-80
2023/06/22 05:21:30;;;;;;;25.10;22.60;;;;;;;;;;5095074;28;20178;-87
2023/06/22 05:23:59;;;;;;;26.03;23.30;;;;;;;;;;5097053;28;20182;-87
2023/06/22 05:26:26;;;;;;;25.43;22.83;;;;;;;;;;5098665;28;20234;-87
2023/06/22 05:28:52;;;;;;;24.63;22.23;;;;;;;;;;5081308;28;20192;-87
2023/06/22 05:31:22;;;;;;;23.73;21.30;;;;;;;;;;5097787;28;20180;-87
2023/06/22 05:33:49;;;;;;;25.33;22.70;;;;;;;;;;5095150;28;20178;-87
2023/06/22 05:36:15;;;;;;;23.83;21.43;;;;;;;;;;5097112;28;20185;-84
2023/06/22 05:38:42;;;;;;;23.77;21.37;;;;;;;;;;5095074;28;20197;-88
2023/06/22 05:41:08;;;;;;;22.97;20.70;;;;;;;;;;5095563;28;20174;-86
2023/06/22 05:43:34;;;;;;;23.03;20.60;;;;;;;;;;5094438;28;20197;-88
2023/06/22 05:46:01;;;;;;;21.47;19.47;;;;;;;;;;5095521;28;20210;-88
2023/06/22 05:48:27;;;;;;;25.47;20.03;;;;;;;;;;5114048;28;20402;-89
2023/06/22 05:50:54;;;;;;;21.33;19.13;;;;;;;;;;5097402;28;20178;-90
2023/06/22 05:53:20;;;;;;;20.87;18.57;;;;;;;;;;5105927;28;20187;-79
2023/06/22 05:55:46;;;;;;;19.53;17.50;;;;;;;;;;5089554;28;20273;-78
2023/06/22 05:58:15;;;;;;;20.83;18.67;;;;;;;;;;5114104;28;20169;-78
2023/06/22 06:00:43;;;;;;;19.47;17.23;;;;;;;;;;5096970;28;20189;-79
2023/06/22 06:03:09;;;;;;;20.50;18.40;;;;;;;;;;5092698;28;20276;-79
2023/06/22 06:05:35;;;;;;;20.63;18.63;;;;;;;;;;5074258;28;20202;-78
2023/06/22 06:08:03;;;;;;;21.17;18.87;;;;;;;;;;5087732;28;20200;-79
2023/06/22 06:10:32;;;;;;;19.87;17.80;;;;;;;;;;5091609;28;20177;-88
2023/06/22 06:12:58;;;;;;;19.83;17.57;;;;;;;;;;5094297;28;20178;-86
2023/06/22 06:15:24;;;;;;;21.57;19.40;;;;;;;;;;5075772;28;20201;-88
2023/06/22 06:17:51;;;;;;;21.83;19.37;;;;;;;;;;5092958;28;20284;-87
2023/06/22 06:20:19;;;;;;;20.10;18.00;;;;;;;;;;5094077;28;20211;-88
2023/06/22 06:22:45;;;;;;;21.83;19.60;;;;;;;;;;5094317;28;20186;-89
2023/06/22 06:25:15;;;;;;;21.70;19.53;;;;;;;;;;5080504;28;20221;-88
2023/06/22 06:27:42;;;;;;;22.87;18.30;;;;;;;;;;5094367;28;20253;-76
2023/06/22 06:30:08;;;;;;;22.30;20.10;;;;;;;;;;5092545;28;20183;-76
2023/06/22 06:32:34;;;;;;;21.10;19.00;;;;;;;;;;5093110;28;20231;-76
2023/06/22 06:35:00;;;;;;;22.20;20.03;;;;;;;;;;5092737;28;20178;-76
2023/06/22 06:37:26;;;;;;;20.80;18.60;;;;;;;;;;5096326;28;20230;-76
2023/06/22 06:39:52;;;;;;;24.90;20.30;;;;;;;;;;5079422;28;20288;-77
2023/06/22 06:42:19;;;;;;;20.70;18.63;;;;;;;;;;5076549;28;20178;-77
2023/06/22 06:44:45;;;;;;;20.17;18.17;;;;;;;;;;5076395;28;20264;-79
2023/06/22 06:47:11;;;;;;;22.63;20.37;;;;;;;;;;5079926;28;20221;-79
2023/06/22 06:49:37;;;;;;;25.17;22.57;;;;;;;;;;5087201;28;20186;-79
2023/06/22 06:52:03;;;;;;;21.07;18.87;;;;;;;;;;5091583;28;20337;-79
2023/06/22 06:54:29;;;;;;;22.83;18.33;;;;;;;;;;5092787;28;20274;-89
2023/06/22 06:56:55;;;;;;;21.67;19.27;;;;;;;;;;5095916;28;20182;-89
2023/06/22 06:59:21;;;;;;;20.83;18.83;;;;;;;;;;5076855;28;20277;-77
2023/06/22 07:01:48;;;;;;;20.30;18.40;;;;;;;;;;5072636;28;20194;-77
2023/06/22 07:04:14;;;;;;;19.17;17.33;;;;;;;;;;5072766;28;20187;-77
2023/06/22 07:06:40;;;;;;;19.17;17.17;;;;;;;;;;5073211;28;20238;-77
2023/06/22 07:09:06;;;;;;;18.73;16.93;;;;;;;;;;5073677;28;20183;-77
2023/06/22 07:11:32;;;;;;;19.50;17.57;;;;;;;;;;5088389;28;20182;-78
2023/06/22 07:14:00;;;;;;;19.23;17.40;;;;;;;;;;5082818;28;20196;-77
2023/06/22 07:16:27;;;;;;;19.80;17.73;;;;;;;;;;5090537;28;20272;-77
2023/06/22 07:18:53;;;;;;;18.45;16.55;;;;;;;;;;5081004;28;20190;-78
2023/06/22 07:21:19;;;;;;;22.30;17.27;;;;;;;;;;5108269;28;20182;-77
2023/06/22 07:23:45;;;;;;;22.47;17.10;;;;;;;;;;5090096;28;20194;-77
2023/06/22 07:26:12;;;;;;;19.45;17.33;;;;;;;;;;5098316;28;20305;-77
2023/06/22 07:28:40;;;;;;;19.08;16.73;;;;;;;;;;5080568;28;20187;-78
2023/06/22 07:31:06;;;;;;;19.27;17.00;;;;;;;;;;5095910;28;20189;-77
2023/06/22 07:33:32;;;;;;;16.77;15.07;;;;;;;;;;5096634;28;20202;-84
2023/06/22 07:35:58;;;;;;;17.53;15.80;;;;;;;;;;5097896;28;20210;-83
2023/06/22 07:38:24;;;;;;;16.85;15.15;;;;;;;;;;5097859;28;20243;-85
2023/06/22 07:40:53;;;;;;;16.88;15.18;;;;;;;;;;5080387;28;20273;-84
2023/06/22 07:43:19;;;;;;;18.75;14.93;;;;;;;;;;5097159;28;20277;-84
2023/06/22 07:45:54;;;;;;;16.30;14.68;;;;;;;;;;5101079;28;20315;-85
2023/06/22 07:48:23;;;;;;;17.60;15.85;;;;;;;;;;5098258;28;20178;-84
2023/06/22 07:50:49;;;;;;;14.82;13.43;;;;;;;;;;5096308;28;20174;-78
2023/06/22 07:53:15;;;;;;;19.98;14.95;;;;;;;;;;5108426;28;20178;-78
2023/06/22 07:55:41;;;;;;;15.38;13.77;;;;;;;;;;5113386;28;20256;-78
2023/06/22 07:58:07;;;;;;;14.90;13.32;;;;;;;;;;5115747;28;20209;-78
2023/06/22 08:00:34;;;;;;;15.88;14.23;;;;;;;;;;5075556;28;20180;-77
2023/06/22 08:03:03;;;;;;;14.93;13.50;;;;;;;;;;5092257;28;20189;-78
2023/06/22 08:05:30;;;;;;;19.30;17.33;;;;;;;;;;5092496;28;20262;-77
2023/06/22 08:07:56;;;;;;;13.80;12.48;;;;;;;;;;5094241;28;20210;-89
2023/06/22 08:10:22;;;;;;;13.85;12.32;;;;;;;;;;5096607;28;20182;-89
2023/06/22 08:12:48;;;;;;;13.18;11.25;;;;;;;;;;5079483;28;20228;-89
2023/06/22 08:15:14;;;;;;;12.77;11.57;;;;;;;;;;5079461;28;20174;-89
2023/06/22 08:17:40;;;;;;;12.57;11.38;;;;;;;;;;5096332;28;20200;-89
2023/06/22 08:20:09;;;;;;;14.65;13.10;;;;;;;;;;5096603;28;20182;-89
2023/06/22 08:22:38;;;;;;;15.32;11.77;;;;;;;;;;5095383;28;20182;-89
2023/06/22 08:25:06;;;;;;;12.32;11.05;;;;;;;;;;5095772;28;20251;-78
2023/06/22 08:27:32;;;;;;;12.90;11.60;;;;;;;;;;5094289;28;20254;-77
2023/06/22 08:30:01;;;;;;;12.00;10.90;;;;;;;;;;5108537;28;20199;-77
2023/06/22 08:32:32;;;;;;;13.07;11.23;;;;;;;;;;5095520;28;20238;-78
2023/06/22 08:34:58;;;;;;;13.75;11.95;;;;;;;;;;5093812;28;20254;-77
2023/06/22 08:37:30;;;;;;;12.73;11.30;;;;;;;;;;5083699;28;20267;-77
2023/06/22 08:39:56;;;;;;;11.55;10.43;;;;;;;;;;5079140;28;20185;-78
2023/06/22 08:42:23;;;;;;;12.63;10.55;;;;;;;;;;5088881;28;20182;-78
2023/06/22 08:44:49;;;;;;;10.75;9.75;;;;;;;;;;5074765;28;20179;-77
2023/06/22 08:47:15;;;;;;;12.07;9.90;;;;;;;;;;5073901;28;20258;-78
2023/06/22 08:49:41;;;;;;;12.23;11.02;;;;;;;;;;5089959;28;20190;-78
2023/06/22 08:52:07;;;;;;;12.40;10.23;;;;;;;;;;5077516;28;20179;-78
2023/06/22 08:54:34;;;;;;;11.32;10.20;;;;;;;;;;5094499;28;20208;-78
2023/06/22 08:57:00;;;;;;;10.35;9.38;;;;;;;;;;5080239;28;20185;-88
2023/06/22 08:59:26;;;;;;;11.35;10.18;;;;;;;;;;5069855;28;20179;-89
2023/06/22 09:01:52;;;;;;;11.82;9.95;;;;;;;;;;5082743;28;20253;-90
2023/06/22 09:04:21;;;;;;;10.70;9.70;;;;;;;;;;5077575;28;20278;-89
2023/06/22 09:06:48;;;;;;;9.82;8.82;;;;;;;;;;5094201;28;20211;-89
2023/06/22 09:09:14;;;;;;;10.50;9.48;;;;;;;;;;5069837;28;20179;-89
2023/06/22 09:11:40;;;;;;;10.32;9.32;;;;;;;;;;5090044;28;20248;-89
2023/06/22 09:14:06;;;;;;;12.82;8.38;;;;;;;;;;5065048;28;20182;-89
2023/06/22 09:16:32;;;;;;;9.57;8.38;;;;;;;;;;5077338;28;20184;-89
2023/06/22 09:18:58;;;;;;;10.77;9.70;;;;;;;;;;5084782;28;20182;-89
2023/06/22 09:21:24;;;;;;;11.32;9.30;;;;;;;;;;5082019;28;20186;-89
2023/06/22 09:23:51;;;;;;;9.73;8.32;;;;;;;;;;5058058;28;20179;-89
2023/06/22 09:26:20;;;;;;;9.48;8.50;;;;;;;;;;5058071;28;20226;-90
2023/06/22 09:28:47;;;;;;;9.20;8.30;;;;;;;;;;5090584;28;20194;-88
2023/06/22 09:31:13;;;;;;;11.02;8.68;;;;;;;;;;5099684;27;20207;-77
2023/06/22 09:33:40;;;;;;;9.18;7.88;;;;;;;;;;5102372;28;20189;-77
2023/06/22 09:36:07;;;;;;;9.27;8.45;;;;;;;;;;5089680;28;20178;-77
2023/06/22 09:38:37;;;;;;;9.68;8.40;;;;;;;;;;5084322;28;20200;-77
2023/06/22 09:41:12;;;;;;;10.20;7.72;;;;;;;;;;5092548;28;20213;-77
2023/06/22 09:43:38;;;;;;;9.13;7.68;;;;;;;;;;5096532;28;20178;-77
2023/06/22 09:46:04;;;;;;;8.52;7.30;;;;;;;;;;5075862;28;20210;-77
2023/06/22 09:48:30;;;;;;;15.13;7.25;;;;;;;;;;5076082;28;20174;-77
2023/06/22 09:50:56;;;;;;;8.80;8.00;;;;;;;;;;5075314;28;20401;-76
2023/06/22 09:53:22;;;;;;;9.85;7.15;;;;;;;;;;5093289;28;20186;-77
2023/06/22 09:55:48;;;;;;;10.68;7.32;;;;;;;;;;5079779;28;20239;-76
2023/06/22 09:58:14;;;;;;;9.05;6.55;;;;;;;;;;5076445;28;20204;-76
2023/06/22 10:00:41;;;;;;;8.70;7.00;;;;;;;;;;5076397;28;20235;-76
2023/06/22 10:03:07;;;;;;;7.30;6.68;;;;;;;;;;5097376;28;20250;-76
2023/06/22 10:05:33;;;;;;;8.68;7.78;;;;;;;;;;5075659;28;20190;-76
2023/06/22 10:07:59;;;;;;;7.80;6.10;;;;;;;;;;5076117;28;20202;-76
2023/06/22 10:10:26;;;;;;;8.35;7.03;;;;;;;;;;5092847;28;20253;-76
2023/06/22 10:12:55;;;;;;;8.88;7.38;;;;;;;;;;5093469;28;20178;-76
2023/06/22 10:15:22;;;;;;;8.95;8.15;;;;;;;;;;5084784;28;20182;-76
2023/06/22 10:17:48;;;;;;;11.63;7.88;;;;;;;;;;5091743;28;20194;-76
2023/06/22 10:20:14;;;;;;;7.38;6.40;;;;;;;;;;5077822;28;20197;-78
2023/06/22 10:22:41;;;;;;;7.97;7.28;;;;;;;;;;5089575;28;20182;-78
2023/06/22 10:25:07;;;;;;;8.15;7.22;;;;;;;;;;5089278;28;20186;-78
2023/06/22 10:27:34;;;;;;;7.43;6.65;;;;;;;;;;5088484;28;20219;-78
2023/06/22 10:30:00;;;;;;;8.40;6.78;;;;;;;;;;5089532;28;20175;-79
2023/06/22 10:32:27;;;;;;;7.50;6.80;;;;;;;;;;5089455;28;20206;-79
2023/06/22 10:34:53;;;;;;;7.35;6.63;;;;;;;;;;5089653;28;20175;-78
2023/06/22 10:37:19;;;;;;;7.60;6.80;;;;;;;;;;5072665;28;20179;-76
2023/06/22 10:39:45;;;;;;;7.70;6.90;;;;;;;;;;5089474;28;20186;-76
2023/06/22 10:42:12;;;;;;;7.93;6.93;;;;;;;;;;5072575;28;20179;-76
2023/06/22 10:44:41;;;;;;;9.23;7.10;;;;;;;;;;5089234;28;20175;-76
2023/06/22 10:47:07;;;;;;;10.30;7.18;;;;;;;;;;5072995;28;20214;-76
2023/06/22 10:49:33;;;;;;;7.90;7.10;;;;;;;;;;5092761;28;20171;-76
2023/06/22 10:51:59;;;;;;;10.57;7.68;;;;;;;;;;5093155;28;20182;-76
2023/06/22 10:54:25;;;;;;;8.45;7.63;;;;;;;;;;5076647;28;20184;-78
2023/06/22 10:56:51;;;;;;;8.63;7.72;;;;;;;;;;5076615;28;20179;-78
2023/06/22 10:59:17;;;;;;;12.18;8.07;;;;;;;;;;5102724;27;20182;-78
2023/06/22 11:01:43;;;;;;;8.18;7.35;;;;;;;;;;5098581;28;20213;-78
2023/06/22 11:04:09;;;;;;;9.43;7.35;;;;;;;;;;5089095;28;20187;-78
2023/06/22 11:06:35;;;;;;;8.85;6.97;;;;;;;;;;5074287;28;20210;-79
2023/06/22 11:09:01;;;;;;;8.48;7.47;;;;;;;;;;5085894;28;20183;-79
2023/06/22 11:11:27;;;;;;;8.70;7.80;;;;;;;;;;5083579;28;20175;-79
2023/06/22 11:13:53;;;;;;;9.10;8.20;;;;;;;;;;5086941;28;20182;-78
2023/06/22 11:16:19;;;;;;;8.57;7.68;;;;;;;;;;5084375;28;20178;-78
2023/06/22 11:18:45;;;;;;;8.93;8.02;;;;;;;;;;5067942;28;20198;-78
2023/06/22 11:21:11;;;;;;;9.30;8.50;;;;;;;;;;5098239;27;20182;-78
2023/06/22 11:23:37;;;;;;;9.63;8.75;;;;;;;;;;5067463;28;20193;-79
2023/06/22 11:26:03;;;;;;;8.90;8.20;;;;;;;;;;5067023;28;20186;-79
2023/06/22 11:28:29;;;;;;;10.10;8.70;;;;;;;;;;5066471;28;20268;-79
2023/06/22 11:30:55;;;;;;;9.52;8.52;;;;;;;;;;5071589;28;20213;-78
2023/06/22 11:33:21;;;;;;;9.70;8.80;;;;;;;;;;5067837;28;20190;-78
2023/06/22 11:35:55;;;;;;;10.40;9.40;;;;;;;;;;5084933;28;20174;-78
2023/06/22 11:38:24;;;;;;;10.48;9.40;;;;;;;;;;5081559;28;20183;-78
2023/06/22 11:40:50;;;;;;;10.85;9.70;;;;;;;;;;5081336;28;20178;-78
2023/06/22 11:43:16;;;;;;;10.20;9.13;;;;;;;;;;5083077;28;20183;-85
2023/06/22 11:45:42;;;;;;;11.30;10.20;;;;;;;;;;5069931;28;20197;-85
2023/06/22 11:48:08;;;;;;;12.93;9.95;;;;;;;;;;5067220;28;20215;-85
2023/06/22 11:50:37;;;;;;;10.45;9.40;;;;;;;;;;5089037;28;20171;-85
2023/06/22 11:53:03;;;;;;;9.50;8.70;;;;;;;;;;5079027;28;20202;-85
2023/06/22 11:55:30;;;;;;;10.85;9.68;;;;;;;;;;5095567;28;20181;-86
2023/06/22 11:57:58;;;;;;;10.48;9.52;;;;;;;;;;5094639;28;20265;-85
2023/06/22 12:00:24;;;;;;;11.23;9.60;;;;;;;;;;5093715;28;20180;-79
2023/06/22 12:02:54;;;;;;;11.63;10.50;;;;;;;;;;5079319;28;20186;-79
2023/06/22 12:05:21;;;;;;;10.70;9.43;;;;;;;;;;5078574;28;20236;-79
2023/06/22 12:07:47;;;;;;;11.90;10.43;;;;;;;;;;5095001;28;20211;-79
2023/06/22 12:10:13;;;;;;;12.30;10.82;;;;;;;;;;5103637;28;20174;-79
2023/06/22 12:12:39;;;;;;;11.93;10.73;;;;;;;;;;5115605;28;20181;-79
2023/06/22 12:15:05;;;;;;;13.82;11.43;;;;;;;;;;5096117;28;20182;-79
2023/06/22 12:17:31;;;;;;;13.25;11.63;;;;;;;;;;5098870;28;20263;-85
2023/06/22 12:19:57;;;;;;;15.30;12.57;;;;;;;;;;5089168;28;20206;-85
2023/06/22 12:22:23;;;;;;;14.27;12.90;;;;;;;;;;5094460;28;20174;-85
2023/06/22 12:24:49;;;;;;;15.52;13.02;;;;;;;;;;5076598;28;20191;-82
2023/06/22 12:27:17;;;;;;;17.83;14.07;;;;;;;;;;5093821;28;20237;-84
2023/06/22 12:29:43;;;;;;;15.57;13.88;;;;;;;;;;5095278;28;20173;-83
2023/06/22 12:32:09;;;;;;;14.95;13.45;;;;;;;;;;5095006;28;20183;-84
2023/06/22 12:34:35;;;;;;;16.00;14.40;;;;;;;;;;5100594;28;20205;-78
2023/06/22 12:37:02;;;;;;;15.32;13.82;;;;;;;;;;5110588;28;20186;-78
2023/06/22 12:39:28;;;;;;;16.42;14.93;;;;;;;;;;5105578;28;20183;-78
2023/06/22 12:41:54;;;;;;;18.02;14.90;;;;;;;;;;5086511;28;20196;-77
2023/06/22 12:44:20;;;;;;;16.02;14.43;;;;;;;;;;5100692;28;20179;-77
2023/06/22 12:46:45;;;;;;;17.52;15.80;;;;;;;;;;5077332;28;20221;-78
2023/06/22 12:49:11;;;;;;;18.23;16.23;;;;;;;;;;5096371;28;20182;-78
2023/06/22 12:51:41;;;;;;;15.57;14.07;;;;;;;;;;5076470;28;20262;-84
2023/06/22 12:54:07;;;;;;;16.92;15.27;;;;;;;;;;5094203;28;20238;-83
2023/06/22 12:56:33;;;;;;;15.45;13.95;;;;;;;;;;5095416;28;20214;-83
2023/06/22 12:59:01;;;;;;;16.45;14.80;;;;;;;;;;5073773;28;20328;-83
2023/06/22 13:01:27;;;;;;;15.88;14.43;;;;;;;;;;5113580;28;20169;-82
2023/06/22 13:03:53;;;;;;;15.38;13.77;;;;;;;;;;5110907;28;20259;-83
2023/06/22 13:06:19;;;;;;;16.08;14.38;;;;;;;;;;5096606;28;20198;-78
2023/06/22 13:08:46;;;;;;;15.95;14.48;;;;;;;;;;5077381;22;20231;-79
2023/06/22 13:11:12;;;;;;;17.35;14.98;;;;;;;;;;5048754;28;20184;-80
2023/06/22 13:13:38;;;;;;;17.15;15.65;;;;;;;;;;5019133;28;20181;-80
2023/06/22 13:16:04;;;;;;;16.23;14.82;;;;;;;;;;5032055;28;20184;-80
2023/06/22 13:18:30;;;;;;;17.52;16.02;;;;;;;;;;5019699;28;20182;-80
2023/06/22 13:20:57;;;;;;;17.13;15.63;;;;;;;;;;5035689;28;20238;-83
2023/06/22 13:23:23;;;;;;;17.90;16.20;;;;;;;;;;5037767;28;20172;-80
2023/06/22 13:25:49;;;;;;;17.25;15.55;;;;;;;;;;5053096;28;20188;-80
2023/06/22 13:28:15;;;;;;;17.40;15.63;;;;;;;;;;5033423;28;20220;-80
2023/06/22 13:30:42;;;;;;;18.33;16.52;;;;;;;;;;5033726;28;20176;-80
2023/06/22 13:33:09;;;;;;;17.75;15.95;;;;;;;;;;5061027;28;20176;-79
2023/06/22 13:35:35;;;;;;;18.33;16.50;;;;;;;;;;5065510;28;20183;-80
2023/06/22 13:38:01;;;;;;;19.25;17.35;;;;;;;;;;5041468;28;20278;-81
2023/06/22 13:40:28;;;;;;;18.83;17.02;;;;;;;;;;5073312;28;20209;-81
2023/06/22 13:42:54;;;;;;;19.42;17.63;;;;;;;;;;5055233;28;20226;-81
2023/06/22 13:45:20;;;;;;;18.33;16.73;;;;;;;;;;5043163;28;20183;-80
2023/06/22 13:47:46;;;;;;;19.52;17.77;;;;;;;;;;5073022;28;20210;-80
2023/06/22 13:50:12;;;;;;;20.67;18.77;;;;;;;;;;5074299;28;20164;-81
2023/06/22 13:52:39;;;;;;;20.73;18.88;;;;;;;;;;5062077;28;20180;-80
2023/06/22 13:55:06;;;;;;;20.67;18.67;;;;;;;;;;5052707;28;20172;-80
2023/06/22 13:57:33;;;;;;;19.58;17.92;;;;;;;;;;5069784;28;20183;-80
2023/06/22 13:59:59;;;;;;;19.48;17.70;;;;;;;;;;5053175;28;20191;-79
2023/06/22 14:02:27;;;;;;;18.35;16.75;;;;;;;;;;5053240;28;20180;-81
2023/06/22 14:04:53;;;;;;;19.00;17.30;;;;;;;;;;5069736;28;20192;-81
2023/06/22 14:07:20;;;;;;;19.57;17.53;;;;;;;;;;5052922;28;20209;-81
2023/06/22 14:09:47;;;;;;;19.60;17.70;;;;;;;;;;5053466;28;20247;-81
2023/06/22 14:12:13;;;;;;;19.75;17.95;;;;;;;;;;5052751;28;20278;-81
2023/06/22 14:14:39;;;;;;;19.83;18.00;;;;;;;;;;5053185;28;20180;-80
2023/06/22 14:17:05;;;;;;;20.30;18.35;;;;;;;;;;5065994;28;20189;-80
2023/06/22 14:19:32;;;;;;;21.23;19.13;;;;;;;;;;5072653;28;20175;-80
2023/06/22 14:21:58;;;;;;;22.23;20.13;;;;;;;;;;5072693;28;20249;-79
2023/06/22 14:24:24;;;;;;;22.25;20.08;;;;;;;;;;5047562;28;20225;-80